Главная страница
METAR-TAF:

METAR-TAF

Аэропорты :

Pocono Mountains Municipal Airport

Mount Pocono, Пенсильвания, США

широта: 41-08-20N, долгота: 075-23-46W, высота над уровнем моря: 584 м

Текущие метеонаблюдения

Эта сводка был подготовлена 1 час и 5 минут назад, в 19:53 UTC
Ветер 15 Узел от западный с порывами до 27 Узел
Температура 13°C
Влажность 54%
Давление 1003 hPa
Видимость: 16.1 км
небольшая облачность на высоте 4300 фута
Рассеянная облачность на высоте 6000 фута

METAR: KMPO 201953Z AUTO 26015G27KT 10SM FEW043 BKN060 13/04 A2963 RMK AO2 PK WND 25027/1855 SLP034 T01280039 $

Время: 16:58 (20:58 UTC)


TAF: отсутствует

Метеонаблюдения и прогнозы для более 4000 аэропортов (сводки METAR и TAF).

Имеющиеся станции представлены на карте желтыми и красными точками.

Чтобы увидеть название станции, наведите на нее мышь.

Затем щелкните, чтобы увидеть метеонаблюдения и метеопрогнозы.

Управление картой: чтобы увеличить масштаб, щелкните зеленые кнопки с черным крестиком; чтобы уменьшить масштаб, щелкните зеленую кнопку с тире; для просмотра соседних карт щелкайте зеленые стрелки.


METAR-TAF: